createdAt,value
2022-12-24T00:03:17.495Z,87.77
2022-12-24T00:08:21.807Z,87.44
2022-12-24T00:13:25.909Z,87.57
2022-12-24T00:18:31.741Z,87.60
2022-12-24T00:23:35.934Z,87.83
2022-12-24T00:28:40.720Z,88.03
2022-12-24T00:33:47.798Z,87.97
2022-12-24T00:38:54.096Z,88.31
2022-12-24T00:44:07.824Z,88.54
2022-12-24T00:49:13.423Z,88.47
2022-12-24T00:54:18.650Z,88.15
2022-12-24T00:59:29.395Z,88.19
2022-12-24T01:04:55.311Z,88.68
2022-12-24T01:10:01.049Z,88.57
2022-12-24T01:15:06.636Z,88.16
2022-12-24T01:20:20.478Z,88.18
2022-12-24T01:25:27.730Z,88.41
2022-12-24T01:30:34.536Z,88.42
2022-12-24T01:35:43.739Z,88.26
2022-12-24T01:41:09.043Z,88.27
2022-12-24T01:46:25.173Z,88.22
2022-12-24T01:51:41.189Z,88.30
2022-12-24T01:56:55.741Z,87.90
2022-12-24T02:02:01.890Z,88.51
2022-12-24T02:07:06.815Z,88.10
2022-12-24T02:12:11.835Z,88.05
2022-12-24T02:17:25.242Z,87.93
2022-12-24T02:23:01.114Z,87.55
2022-12-24T02:28:24.503Z,87.69
2022-12-24T02:33:39.398Z,88.08
2022-12-24T02:39:12.445Z,88.49
2022-12-24T02:44:18.971Z,88.46
2022-12-24T02:49:23.274Z,88.53
2022-12-24T02:54:27.703Z,88.62
2022-12-24T02:59:58.485Z,88.48
2022-12-24T03:05:27.069Z,88.59
2022-12-24T03:10:58.434Z,88.61
2022-12-24T03:16:07.513Z,88.27
2022-12-24T03:21:25.568Z,88.01
2022-12-24T03:26:30.418Z,88.33
2022-12-24T03:31:47.243Z,88.45
2022-12-24T03:36:52.758Z,88.25
2022-12-24T03:41:58.557Z,88.67
2022-12-24T03:47:02.852Z,88.27
2022-12-24T03:52:08.094Z,88.50
2022-12-24T03:57:12.153Z,88.18
2022-12-24T04:02:16.248Z,88.27
2022-12-24T04:07:20.005Z,87.91
2022-12-24T04:12:24.049Z,88.30
2022-12-24T04:17:29.327Z,88.02
2022-12-24T04:22:34.499Z,88.24
2022-12-24T04:27:39.366Z,87.95
2022-12-24T04:32:44.308Z,87.83
2022-12-24T04:37:48.896Z,87.87
2022-12-24T04:42:53.835Z,87.57
2022-12-24T04:47:58.237Z,87.55
2022-12-24T04:53:02.959Z,88.14
2022-12-24T04:58:07.916Z,88.24
2022-12-24T05:03:12.658Z,88.18
2022-12-24T05:08:17.049Z,88.28
2022-12-24T05:13:20.333Z,87.95
2022-12-24T05:18:25.535Z,87.97
2022-12-24T05:24:05.720Z,88.27
2022-12-24T05:29:13.406Z,88.56
2022-12-24T05:34:17.396Z,88.49
2022-12-24T05:39:21.147Z,88.52
2022-12-24T05:44:25.011Z,88.68
2022-12-24T05:49:29.157Z,88.45
2022-12-24T05:54:32.455Z,88.06
2022-12-24T05:59:36.176Z,88.19
2022-12-24T06:04:39.836Z,88.03
2022-12-24T06:09:43.666Z,88.29
2022-12-24T06:14:48.339Z,88.10
2022-12-24T06:19:52.697Z,88.56
2022-12-24T06:24:57.330Z,88.38
2022-12-24T06:30:01.789Z,88.66
2022-12-24T06:35:07.218Z,88.21
2022-12-24T06:40:12.189Z,88.26
2022-12-24T06:45:17.702Z,88.28
2022-12-24T06:50:22.275Z,87.94
2022-12-24T06:55:27.290Z,88.25
2022-12-24T07:00:31.556Z,88.43
2022-12-24T07:05:36.739Z,88.43
2022-12-24T07:10:41.716Z,88.32
2022-12-24T07:15:47.176Z,88.41
2022-12-24T07:20:52.586Z,88.28
2022-12-24T07:25:56.623Z,88.99
2022-12-24T07:31:01.927Z,88.71
2022-12-24T07:36:09.316Z,88.59
2022-12-24T07:41:14.451Z,89.03
2022-12-24T07:46:19.121Z,88.50
2022-12-24T07:51:24.072Z,89.16
2022-12-24T07:56:28.960Z,88.49
2022-12-24T08:01:34.096Z,88.47
2022-12-24T08:06:38.972Z,88.42
2022-12-24T08:11:51.395Z,89.01
2022-12-24T08:16:56.588Z,88.21
2022-12-24T08:22:02.391Z,88.30
2022-12-24T08:27:06.614Z,88.31
2022-12-24T08:32:10.559Z,88.13
2022-12-24T08:37:15.530Z,88.75
2022-12-24T08:42:20.905Z,88.77
2022-12-24T08:47:25.903Z,88.74
2022-12-24T08:52:30.066Z,88.63
2022-12-24T08:57:38.377Z,88.70
2022-12-24T09:02:42.337Z,88.45
2022-12-24T09:07:46.766Z,88.48
2022-12-24T09:12:52.062Z,88.78
2022-12-24T09:17:57.044Z,88.47
2022-12-24T09:23:01.219Z,88.66
2022-12-24T09:28:05.461Z,88.85
2022-12-24T09:33:09.049Z,88.62
2022-12-24T09:38:13.562Z,89.07
2022-12-24T09:43:22.300Z,88.78
2022-12-24T09:48:31.901Z,88.68
2022-12-24T09:53:52.540Z,88.75
2022-12-24T09:59:01.895Z,88.67
2022-12-24T10:04:13.222Z,88.66
2022-12-24T10:09:49.303Z,88.69
2022-12-24T10:15:31.021Z,88.70
2022-12-24T10:20:53.565Z,88.79
2022-12-24T10:26:28.624Z,88.67
2022-12-24T10:31:38.969Z,88.59
2022-12-24T10:36:44.517Z,88.61
2022-12-24T10:41:52.662Z,88.89
2022-12-24T10:46:57.669Z,88.78
2022-12-24T10:52:12.324Z,89.12
2022-12-24T10:57:29.162Z,89.02
2022-12-24T11:02:34.074Z,88.96
2022-12-24T11:07:38.333Z,88.65
2022-12-24T11:13:05.853Z,88.84
2022-12-24T11:18:16.330Z,89.05
2022-12-24T11:23:21.428Z,88.57
2022-12-24T11:28:29.966Z,89.15
2022-12-24T11:33:49.194Z,89.14
2022-12-24T11:38:55.994Z,88.94
2022-12-24T11:44:04.993Z,89.02
2022-12-24T11:49:28.218Z,89.19
2022-12-24T11:54:52.048Z,88.92
2022-12-24T11:59:56.261Z,88.85
2022-12-24T12:05:08.727Z,89.17
2022-12-24T12:10:37.671Z,88.55
2022-12-24T12:15:52.740Z,89.03
2022-12-24T12:21:06.910Z,89.24
2022-12-24T12:26:19.106Z,89.12
2022-12-24T12:31:27.138Z,88.94
2022-12-24T12:36:37.020Z,88.53
2022-12-24T12:41:58.951Z,88.87
2022-12-24T12:47:20.737Z,88.88
2022-12-24T12:53:02.957Z,89.17
2022-12-24T12:58:16.769Z,89.06
2022-12-24T13:03:44.108Z,89.26
2022-12-24T13:08:54.165Z,89.19
2022-12-24T13:14:16.931Z,89.26
2022-12-24T13:19:23.017Z,89.04
2022-12-24T13:24:31.684Z,88.87
2022-12-24T13:29:36.822Z,88.71
2022-12-24T13:35:14.703Z,88.59
2022-12-24T13:40:29.039Z,88.96
2022-12-24T13:45:39.943Z,88.92
2022-12-24T13:50:54.567Z,88.87
2022-12-24T13:56:19.520Z,88.81
2022-12-24T14:01:38.791Z,89.20
2022-12-24T14:06:43.749Z,88.77
2022-12-24T14:11:58.701Z,88.69
2022-12-24T14:17:23.653Z,88.59
2022-12-24T14:22:48.765Z,88.68
2022-12-24T14:27:59.981Z,88.76
2022-12-24T14:33:04.280Z,89.13
2022-12-24T14:38:22.766Z,88.89
2022-12-24T14:43:51.049Z,88.79
2022-12-24T14:49:32.603Z,88.48
2022-12-24T14:54:37.888Z,88.81
2022-12-24T14:59:51.634Z,88.76
2022-12-24T15:05:08.176Z,88.87
2022-12-24T15:10:46.010Z,88.64
2022-12-24T15:15:53.374Z,89.26
2022-12-24T15:21:04.504Z,88.73
2022-12-24T15:26:32.643Z,88.81
2022-12-24T15:31:36.434Z,88.70
2022-12-24T15:36:40.757Z,89.16
2022-12-24T15:42:08.645Z,88.75
2022-12-24T15:47:22.546Z,88.57
2022-12-24T15:52:27.873Z,88.49
2022-12-24T15:57:34.151Z,88.92
2022-12-24T16:02:48.347Z,88.68
2022-12-24T16:08:14.368Z,88.57
2022-12-24T16:14:01.574Z,88.67
2022-12-24T16:19:20.061Z,88.76
2022-12-24T16:24:32.796Z,88.43
2022-12-24T16:29:39.524Z,88.39
2022-12-24T16:34:48.564Z,88.71
2022-12-24T16:39:56.014Z,88.62
2022-12-24T16:45:05.020Z,88.86
2022-12-24T16:50:18.748Z,88.57
2022-12-24T16:55:27.504Z,88.52
2022-12-24T17:00:39.637Z,88.67
2022-12-24T17:05:48.231Z,88.35
2022-12-24T17:10:55.505Z,88.78
2022-12-24T17:16:06.548Z,88.60
2022-12-24T17:21:16.248Z,88.44
2022-12-24T17:26:22.604Z,88.32
2022-12-24T17:31:30.906Z,88.39
2022-12-24T17:36:41.625Z,89.09
2022-12-24T17:41:49.957Z,88.22
2022-12-24T17:46:57.113Z,88.18
2022-12-24T17:52:06.312Z,87.96
2022-12-24T17:57:11.250Z,87.84
2022-12-24T18:02:17.693Z,88.06
2022-12-24T18:07:27.396Z,87.63
2022-12-24T18:12:34.436Z,87.58
2022-12-24T18:17:47.406Z,87.87
2022-12-24T18:22:54.875Z,88.03
2022-12-24T18:28:08.137Z,87.87
2022-12-24T18:33:19.413Z,88.40
2022-12-24T18:38:31.375Z,88.36
2022-12-24T18:43:44.881Z,87.92
2022-12-24T18:48:52.492Z,87.92
2022-12-24T18:53:59.377Z,88.15
2022-12-24T18:59:05.566Z,88.26
2022-12-24T19:04:12.483Z,87.83
2022-12-24T19:09:21.984Z,87.79
2022-12-24T19:14:28.132Z,87.70
2022-12-24T19:19:33.473Z,87.74
2022-12-24T19:24:37.628Z,87.96
2022-12-24T19:29:41.402Z,88.30
2022-12-24T19:34:46.536Z,88.06
2022-12-24T19:39:51.477Z,87.78
2022-12-24T19:44:56.516Z,87.70
2022-12-24T19:50:02.314Z,87.77
2022-12-24T19:55:07.750Z,87.77
2022-12-24T20:00:13.054Z,88.36
2022-12-24T20:05:18.459Z,88.01
2022-12-24T20:10:22.637Z,88.15
2022-12-24T20:15:26.519Z,88.04
2022-12-24T20:20:30.340Z,87.68
2022-12-24T20:25:38.696Z,88.06
2022-12-24T20:30:45.074Z,87.81
2022-12-24T20:35:50.516Z,87.95
2022-12-24T20:40:58.299Z,88.05
2022-12-24T20:46:07.057Z,88.57
2022-12-24T20:51:22.830Z,88.37
2022-12-24T20:56:31.242Z,87.87
2022-12-24T21:01:35.505Z,88.28
2022-12-24T21:06:41.384Z,88.44
2022-12-24T21:11:48.220Z,88.66
2022-12-24T21:16:55.554Z,88.35
2022-12-24T21:22:01.154Z,88.07
2022-12-24T21:27:05.696Z,87.58
2022-12-24T21:32:09.660Z,88.00
2022-12-24T21:37:14.015Z,88.27
2022-12-24T21:42:18.662Z,88.07
2022-12-24T21:47:23.454Z,88.58
2022-12-24T21:52:27.699Z,88.28
2022-12-24T21:57:52.708Z,87.89
2022-12-24T22:02:59.454Z,87.93
2022-12-24T22:08:22.020Z,88.01
2022-12-24T22:13:26.257Z,88.24
2022-12-24T22:18:30.405Z,88.02
2022-12-24T22:23:40.552Z,88.45
2022-12-24T22:28:47.871Z,88.18
2022-12-24T22:33:52.358Z,87.75
2022-12-24T22:38:56.976Z,87.97
2022-12-24T22:44:02.478Z,88.36
2022-12-24T22:49:07.940Z,88.27
2022-12-24T22:54:12.806Z,88.41
2022-12-24T22:59:17.763Z,88.40
2022-12-24T23:04:22.592Z,88.33
2022-12-24T23:09:29.409Z,88.70
2022-12-24T23:14:52.621Z,88.57
2022-12-24T23:19:56.759Z,88.94
2022-12-24T23:25:00.882Z,88.85
2022-12-24T23:30:05.584Z,88.91
2022-12-24T23:35:09.628Z,88.62
2022-12-24T23:40:13.443Z,89.10
2022-12-24T23:45:17.556Z,88.95
2022-12-24T23:50:21.715Z,89.05
2022-12-24T23:55:26.359Z,89.12
